Time;durP1;ratioP1;P1;durP2;ratioP2;P2;SDS_P1;SDS_P2;PMS_P1;PMS_P2;Temp;Humidity;BMP_temperature;BMP_pressure;BME280_temperature;BME280_humidity;BME280_pressure;Samples;Min_cycle;Max_cycle;Signal;HPM_P1;HPM_P2
2024/02/14 00:00:20;;;;;;;12.73;7.15;;;;;;;0.10;100.00;96339.66;2089602;28;20037;-54
2024/02/14 00:01:22;;;;;;;15.05;6.90;;;;;;;0.13;100.00;96341.34;2082070;28;20046;-54
2024/02/14 00:02:25;;;;;;;11.48;6.32;;;;;;;0.14;100.00;96341.38;2082262;28;20045;-53
2024/02/14 00:03:26;;;;;;;12.35;6.55;;;;;;;0.13;100.00;96344.75;2091314;28;20045;-60
2024/02/14 00:04:28;;;;;;;12.20;6.75;;;;;;;0.14;100.00;96343.91;2091736;28;20043;-55
2024/02/14 00:05:29;;;;;;;14.93;7.88;;;;;;;0.15;100.00;96347.31;2093774;28;20049;-65
2024/02/14 00:06:35;;;;;;;11.25;6.32;;;;;;;0.10;100.00;96338.81;2090863;28;20401;-54
2024/02/14 00:07:42;;;;;;;14.88;6.70;;;;;;;0.13;100.00;96343.91;2090811;28;20405;-54
2024/02/14 00:08:43;;;;;;;12.38;6.93;;;;;;;0.15;100.00;96343.06;2090866;28;20480;-55
2024/02/14 00:09:44;;;;;;;13.52;7.50;;;;;;;0.13;100.00;96347.31;2090288;28;20041;-54
2024/02/14 00:10:45;;;;;;;12.93;6.63;;;;;;;0.15;100.00;96345.59;2090147;28;20040;-53
2024/02/14 00:11:46;;;;;;;16.60;7.38;;;;;;;0.18;100.00;96347.31;2090616;28;20408;-55
2024/02/14 00:12:48;;;;;;;14.15;6.90;;;;;;;0.19;100.00;96343.91;2090878;28;20037;-53
2024/02/14 00:13:49;;;;;;;14.00;7.18;;;;;;;0.17;100.00;96343.06;2090713;28;20057;-53
2024/02/14 00:14:51;;;;;;;13.40;6.72;;;;;;;0.22;100.00;96357.53;2089843;28;20516;-54
2024/02/14 00:15:52;;;;;;;16.70;7.78;;;;;;;0.23;100.00;96348.16;2090117;28;20044;-53
2024/02/14 00:16:53;;;;;;;11.55;6.45;;;;;;;0.25;100.00;96356.69;2089312;28;20077;-54
2024/02/14 00:17:54;;;;;;;10.88;6.93;;;;;;;0.25;100.00;96349.00;2090039;28;20523;-55
2024/02/14 00:18:56;;;;;;;10.85;6.05;;;;;;;0.28;100.00;96354.13;2090699;28;20044;-54
2024/02/14 00:19:57;;;;;;;13.02;6.70;;;;;;;0.27;100.00;96344.75;2090758;28;20036;-54
2024/02/14 00:20:59;;;;;;;12.35;6.28;;;;;;;0.31;100.00;96353.25;2090710;28;20374;-54
2024/02/14 00:22:00;;;;;;;12.50;5.97;;;;;;;0.30;100.00;96352.41;2090640;28;20511;-54
2024/02/14 00:23:01;;;;;;;14.73;7.18;;;;;;;0.31;100.00;96354.09;2089650;28;20071;-54
2024/02/14 00:24:02;;;;;;;13.45;6.22;;;;;;;0.31;100.00;96351.56;2090028;28;20037;-54
2024/02/14 00:25:04;;;;;;;12.52;6.88;;;;;;;0.31;100.00;96349.00;2090799;28;20408;-54
2024/02/14 00:26:05;;;;;;;12.75;5.70;;;;;;;0.31;100.00;96354.09;2090537;28;20037;-55
2024/02/14 00:27:07;;;;;;;15.68;6.80;;;;;;;0.32;100.00;96354.94;2090908;28;20041;-54
2024/02/14 00:28:08;;;;;;;10.95;6.68;;;;;;;0.31;100.00;96349.00;2090735;28;20461;-55
2024/02/14 00:29:09;;;;;;;10.35;6.00;;;;;;;0.32;100.00;96344.72;2091003;28;20047;-53
2024/02/14 00:30:10;;;;;;;12.95;6.00;;;;;;;0.30;100.00;96349.84;2091107;28;20090;-54
2024/02/14 00:31:11;;;;;;;11.13;5.93;;;;;;;0.27;100.00;96351.53;2090379;28;20048;-54
2024/02/14 00:32:12;;;;;;;12.25;6.03;;;;;;;0.28;100.00;96351.56;2090464;28;20053;-54
2024/02/14 00:33:14;;;;;;;11.82;6.50;;;;;;;0.30;100.00;96354.97;2089690;28;20390;-55
2024/02/14 00:34:15;;;;;;;10.88;5.78;;;;;;;0.27;100.00;96349.00;2090062;28;20116;-54
2024/02/14 00:35:16;;;;;;;9.00;5.60;;;;;;;0.30;100.00;96343.91;2091025;28;20052;-54
2024/02/14 00:36:17;;;;;;;7.88;5.60;;;;;;;0.34;100.00;96350.69;2090559;28;20412;-53
2024/02/14 00:37:19;;;;;;;10.82;6.40;;;;;;;0.33;100.00;96347.28;2090569;28;20057;-54
2024/02/14 00:38:20;;;;;;;9.57;5.80;;;;;;;0.32;100.00;96345.59;2090655;28;20040;-54
2024/02/14 00:39:21;;;;;;;13.48;6.07;;;;;;;0.33;100.00;96346.44;2090651;28;20033;-57
2024/02/14 00:40:22;;;;;;;10.25;5.30;;;;;;;0.32;100.00;96350.72;2090466;28;20057;-53
2024/02/14 00:41:24;;;;;;;13.85;6.30;;;;;;;0.33;100.00;96354.13;2090377;28;20408;-54
2024/02/14 00:42:25;;;;;;;12.43;5.78;;;;;;;0.29;100.00;96350.69;2090594;28;20048;-54
2024/02/14 00:43:26;;;;;;;10.13;5.68;;;;;;;0.27;100.00;96359.22;2090496;28;20052;-54
2024/02/14 00:44:27;;;;;;;11.75;5.95;;;;;;;0.28;100.00;96350.72;2090235;28;20056;-55
2024/02/14 00:45:28;;;;;;;10.93;6.40;;;;;;;0.29;100.00;96357.50;2090455;28;20037;-54
2024/02/14 00:46:29;;;;;;;10.75;6.00;;;;;;;0.25;100.00;96354.13;2090603;28;20049;-54
2024/02/14 00:47:32;;;;;;;10.80;6.05;;;;;;;0.25;100.00;96353.28;2090137;28;20052;-54
2024/02/14 00:48:34;;;;;;;10.70;5.75;;;;;;;0.25;100.00;96354.13;2089939;28;20032;-55
2024/02/14 00:49:35;;;;;;;12.25;5.90;;;;;;;0.22;100.00;96360.09;2090236;28;20045;-54
2024/02/14 00:50:37;;;;;;;8.63;5.60;;;;;;;0.25;100.00;96359.22;2089424;28;20048;-54
2024/02/14 00:51:39;;;;;;;10.02;6.13;;;;;;;0.28;100.00;96358.38;2089890;28;20041;-53
2024/02/14 00:52:41;;;;;;;11.35;5.65;;;;;;;0.29;100.00;96358.34;2090498;28;20045;-55
2024/02/14 00:53:42;;;;;;;12.85;5.22;;;;;;;0.31;100.00;96358.38;2090333;28;20057;-54
2024/02/14 00:54:43;;;;;;;9.35;5.97;;;;;;;0.33;100.00;96359.22;2090585;28;20044;-53
2024/02/14 00:55:44;;;;;;;11.10;6.15;;;;;;;0.33;100.00;96364.34;2090932;28;20048;-54
2024/02/14 00:56:45;;;;;;;10.55;5.78;;;;;;;0.32;100.00;96363.50;2090477;28;20396;-53
2024/02/14 00:57:46;;;;;;;14.60;6.35;;;;;;;0.32;100.00;96360.06;2090450;28;20036;-54
2024/02/14 00:58:48;;;;;;;9.35;5.32;;;;;;;0.29;100.00;96358.34;2090425;28;20158;-55
2024/02/14 00:59:49;;;;;;;11.18;6.00;;;;;;;0.32;100.00;96360.94;2090458;28;20417;-54
2024/02/14 01:00:50;;;;;;;12.50;5.57;;;;;;;0.33;100.00;96364.34;2090320;28;20056;-54
2024/02/14 01:01:51;;;;;;;14.02;6.18;;;;;;;0.33;100.00;96365.19;2090302;28;20033;-53
2024/02/14 01:02:52;;;;;;;9.90;5.65;;;;;;;0.32;100.00;96363.50;2090197;28;20053;-55
2024/02/14 01:03:53;;;;;;;10.40;5.65;;;;;;;0.32;100.00;96365.16;2090426;28;20029;-53
2024/02/14 01:04:55;;;;;;;10.43;5.50;;;;;;;0.32;100.00;96365.16;2090369;28;20041;-55
2024/02/14 01:05:56;;;;;;;9.95;5.30;;;;;;;0.31;100.00;96369.44;2090305;28;20696;-54
2024/02/14 01:06:58;;;;;;;13.77;5.85;;;;;;;0.31;100.00;96371.13;2090335;28;20040;-53
2024/02/14 01:07:59;;;;;;;11.15;6.25;;;;;;;0.28;100.00;96369.44;2090087;28;20466;-54
2024/02/14 01:09:00;;;;;;;11.23;5.47;;;;;;;0.25;100.00;96364.34;2089988;28;20041;-54
2024/02/14 01:10:01;;;;;;;9.40;5.82;;;;;;;0.25;100.00;96372.00;2090296;28;20059;-55
2024/02/14 01:11:02;;;;;;;9.48;5.18;;;;;;;0.24;100.00;96372.84;2090126;28;20049;-55
2024/02/14 01:12:04;;;;;;;10.07;5.70;;;;;;;0.19;100.00;96367.75;2089668;28;20052;-54
2024/02/14 01:13:06;;;;;;;8.93;4.85;;;;;;;0.19;100.00;96377.13;2089656;28;20061;-55
2024/02/14 01:14:07;;;;;;;11.65;5.57;;;;;;;0.16;100.00;96375.44;2089456;28;20067;-54
2024/02/14 01:15:08;;;;;;;10.48;5.03;;;;;;;0.15;100.00;96375.41;2090162;28;20469;-54
2024/02/14 01:16:09;;;;;;;9.68;5.18;;;;;;;0.13;100.00;96374.56;2090234;28;20056;-55
2024/02/14 01:17:11;;;;;;;10.93;5.90;;;;;;;0.10;100.00;96377.97;2089766;28;20040;-55
2024/02/14 01:18:12;;;;;;;12.73;6.18;;;;;;;0.08;100.00;96373.69;2090312;28;20120;-54
2024/02/14 01:19:13;;;;;;;10.65;5.40;;;;;;;0.06;100.00;96367.78;2090202;28;20075;-54
2024/02/14 01:20:15;;;;;;;10.55;5.22;;;;;;;0.04;100.00;96372.84;2089884;28;20507;-54
2024/02/14 01:21:16;;;;;;;11.18;6.38;;;;;;;0.02;100.00;96374.56;2090213;28;20048;-53
2024/02/14 01:22:18;;;;;;;9.98;6.00;;;;;;;-0.01;100.00;96372.00;2090145;28;20045;-54
2024/02/14 01:23:19;;;;;;;9.88;5.30;;;;;;;-0.05;100.00;96371.16;2090350;28;20043;-53
2024/02/14 01:24:22;;;;;;;10.52;5.53;;;;;;;-0.05;100.00;96375.44;2090193;28;20052;-53
2024/02/14 01:25:23;;;;;;;11.43;5.72;;;;;;;-0.07;100.00;96375.41;2090165;28;20037;-55
2024/02/14 01:26:24;;;;;;;11.68;5.35;;;;;;;-0.07;100.00;96377.97;2090111;28;20481;-53
2024/02/14 01:27:25;;;;;;;10.45;5.28;;;;;;;-0.08;100.00;96378.84;2090150;28;20040;-54
2024/02/14 01:28:26;;;;;;;8.77;5.38;;;;;;;-0.11;100.00;96373.69;2090384;28;20045;-54
2024/02/14 01:29:27;;;;;;;9.10;5.88;;;;;;;-0.11;100.00;96378.81;2089884;28;20061;-54
2024/02/14 01:30:28;;;;;;;10.05;5.35;;;;;;;-0.11;100.00;96375.41;2090094;28;20048;-54
2024/02/14 01:31:30;;;;;;;11.55;5.90;;;;;;;-0.12;100.00;96374.56;2089957;28;20067;-55
2024/02/14 01:32:31;;;;;;;10.82;5.53;;;;;;;-0.13;100.00;96382.22;2090236;28;20049;-54
2024/02/14 01:33:33;;;;;;;11.40;5.97;;;;;;;-0.14;100.00;96380.50;2090247;28;20049;-55
2024/02/14 01:34:34;;;;;;;10.85;5.30;;;;;;;-0.16;100.00;96379.66;2090139;28;20048;-55
2024/02/14 01:35:35;;;;;;;14.48;6.30;;;;;;;-0.16;100.00;96374.53;2090128;28;20488;-55
2024/02/14 01:36:38;;;;;;;10.48;6.10;;;;;;;-0.18;100.00;96381.38;2090452;28;20029;-53
2024/02/14 01:37:39;;;;;;;9.30;5.18;;;;;;;-0.19;100.00;96377.09;2090095;28;20041;-55
2024/02/14 01:38:42;;;;;;;9.43;5.47;;;;;;;-0.19;100.00;96379.66;2090218;28;20382;-54
2024/02/14 01:39:43;;;;;;;10.75;5.13;;;;;;;-0.23;100.00;96377.09;2090140;28;20057;-54
2024/02/14 01:40:45;;;;;;;8.70;5.25;;;;;;;-0.23;100.00;96377.09;2090284;28;20476;-54
2024/02/14 01:41:48;;;;;;;9.45;5.60;;;;;;;-0.24;100.00;96377.13;2089983;28;20044;-54
2024/02/14 01:42:49;;;;;;;9.07;5.50;;;;;;;-0.24;100.00;96374.56;2090373;28;20056;-55
2024/02/14 01:43:50;;;;;;;9.13;6.00;;;;;;;-0.23;100.00;96374.56;2090145;28;20522;-54
2024/02/14 01:44:51;;;;;;;10.32;5.88;;;;;;;-0.22;100.00;96363.47;2089819;28;20041;-54
2024/02/14 01:45:52;;;;;;;10.57;5.90;;;;;;;-0.22;100.00;96372.84;2090359;28;20033;-55
2024/02/14 01:46:53;;;;;;;9.23;5.47;;;;;;;-0.22;100.00;96367.75;2090157;28;20404;-55
2024/02/14 01:47:55;;;;;;;12.80;5.72;;;;;;;-0.20;100.00;96375.41;2090160;28;20052;-55
2024/02/14 01:48:56;;;;;;;10.88;5.55;;;;;;;-0.22;100.00;96373.69;2090056;28;20033;-54
2024/02/14 01:49:58;;;;;;;13.43;5.60;;;;;;;-0.22;100.00;96373.69;2089726;28;20048;-55
2024/02/14 01:50:59;;;;;;;9.65;5.22;;;;;;;-0.22;100.00;96370.28;2089011;28;20546;-54
2024/02/14 01:52:02;;;;;;;9.02;4.78;;;;;;;-0.20;100.00;96378.81;2081457;28;20025;-55
2024/02/14 01:53:03;;;;;;;10.25;6.20;;;;;;;-0.17;100.00;96371.16;2073188;28;20046;-54
2024/02/14 01:54:04;;;;;;;8.50;5.32;;;;;;;-0.15;100.00;96371.16;2089677;28;20049;-54
2024/02/14 01:55:06;;;;;;;14.00;6.05;;;;;;;-0.15;100.00;96373.72;2088899;28;20052;-55
2024/02/14 01:56:07;;;;;;;9.55;5.60;;;;;;;-0.14;100.00;96373.69;2081189;28;20041;-55
2024/02/14 01:57:08;;;;;;;9.07;5.40;;;;;;;-0.13;100.00;96366.91;2081658;28;20057;-54
2024/02/14 01:58:09;;;;;;;11.90;5.53;;;;;;;-0.13;100.00;96372.03;2089514;28;20041;-55
2024/02/14 01:59:10;;;;;;;10.77;5.15;;;;;;;-0.14;100.00;96370.31;2089449;28;20527;-53
2024/02/14 02:00:17;;;;;;;13.57;5.82;;;;;;;-0.15;100.00;96366.06;2089636;28;20085;-54
2024/02/14 02:01:18;;;;;;;10.80;5.70;;;;;;;-0.18;100.00;96363.50;2089577;28;20044;-54
2024/02/14 02:02:20;;;;;;;8.48;5.35;;;;;;;-0.17;100.00;96365.19;2088919;28;20480;-55
2024/02/14 02:03:25;;;;;;;8.77;4.68;;;;;;;-0.15;100.00;96360.94;2089388;28;20041;-55
2024/02/14 02:04:26;;;;;;;8.82;4.90;;;;;;;-0.17;100.00;96366.03;2089711;28;20049;-54
2024/02/14 02:05:28;;;;;;;10.70;5.40;;;;;;;-0.18;100.00;96355.84;2089730;28;20051;-54
2024/02/14 02:06:30;;;;;;;8.65;5.07;;;;;;;-0.20;100.00;96355.00;2089758;28;20060;-53
2024/02/14 02:07:32;;;;;;;9.15;5.20;;;;;;;-0.20;100.00;96360.09;2089906;28;20499;-54
2024/02/14 02:08:33;;;;;;;10.48;5.32;;;;;;;-0.22;100.00;96357.53;2089679;28;20499;-54
2024/02/14 02:09:34;;;;;;;8.68;4.55;;;;;;;-0.21;100.00;96359.25;2089128;28;20052;-54
2024/02/14 02:10:35;;;;;;;7.93;4.70;;;;;;;-0.18;100.00;96358.41;2089436;28;20045;-55
2024/02/14 02:11:49;;;;;;;8.98;4.63;;;;;;;-0.20;100.00;96360.94;2089072;28;20052;-54
2024/02/14 02:12:50;;;;;;;10.20;4.82;;;;;;;-0.17;100.00;96357.53;2089261;28;20045;-55
2024/02/14 02:13:52;;;;;;;9.10;5.00;;;;;;;-0.17;100.00;96360.09;2090002;28;20052;-53
2024/02/14 02:14:53;;;;;;;8.77;4.88;;;;;;;-0.17;100.00;96368.59;2089652;28;20405;-54
2024/02/14 02:15:54;;;;;;;8.38;4.88;;;;;;;-0.18;100.00;96364.34;2089801;28;20047;-53
2024/02/14 02:16:56;;;;;;;9.55;4.90;;;;;;;-0.17;100.00;96366.03;2087933;28;20064;-55
2024/02/14 02:17:59;;;;;;;10.55;4.63;;;;;;;-0.19;100.00;96364.34;2089467;28;20515;-54
2024/02/14 02:19:00;;;;;;;8.15;4.57;;;;;;;-0.22;100.00;96365.19;2080945;28;20041;-54
2024/02/14 02:20:02;;;;;;;11.35;5.65;;;;;;;-0.21;100.00;96366.91;2081363;28;20068;-53
2024/02/14 02:21:06;;;;;;;11.00;4.45;;;;;;;-0.18;100.00;96360.94;2090083;28;20037;-55
2024/02/14 02:22:07;;;;;;;10.02;4.90;;;;;;;-0.17;100.00;96362.66;2089848;28;20041;-54
2024/02/14 02:23:16;;;;;;;9.60;3.83;;;;;;;-0.16;100.00;96365.22;2090926;28;20045;-54
2024/02/14 02:24:18;;;;;;;7.75;4.00;;;;;;;-0.15;100.00;96364.34;2091666;28;20057;-54
2024/02/14 02:25:23;;;;;;;8.43;4.05;;;;;;;-0.13;100.00;96357.56;2091283;28;20048;-54
2024/02/14 02:26:25;;;;;;;7.35;4.35;;;;;;;-0.13;100.00;96367.75;2091688;28;20063;-53
2024/02/14 02:27:26;;;;;;;8.50;4.97;;;;;;;-0.09;100.00;96371.16;2091597;28;20052;-54
2024/02/14 02:28:27;;;;;;;8.23;4.28;;;;;;;-0.08;100.00;96365.19;2091549;28;20037;-54
2024/02/14 02:29:28;;;;;;;7.22;3.95;;;;;;;-0.07;100.00;96356.69;2091764;28;20064;-54
2024/02/14 02:30:29;;;;;;;6.82;4.13;;;;;;;-0.03;100.00;96363.50;2090527;28;20041;-55
2024/02/14 02:31:30;;;;;;;8.70;4.10;;;;;;;-0.05;100.00;96348.19;2090975;28;20045;-55
2024/02/14 02:32:32;;;;;;;8.80;4.15;;;;;;;-0.05;100.00;96355.84;2091864;28;20063;-54
2024/02/14 02:33:33;;;;;;;6.68;3.95;;;;;;;-0.05;100.00;96357.56;2091523;28;20049;-53
2024/02/14 02:34:34;;;;;;;6.90;3.75;;;;;;;-0.03;100.00;96355.81;2091592;28;20041;-54
2024/02/14 02:35:35;;;;;;;7.65;4.53;;;;;;;-0.03;100.00;96358.38;2091277;28;20047;-53
2024/02/14 02:36:37;;;;;;;7.65;4.43;;;;;;;-0.04;100.00;96359.25;2091489;28;20036;-55
2024/02/14 02:37:38;;;;;;;8.98;4.07;;;;;;;-0.04;100.00;96356.69;2091494;28;20052;-55
2024/02/14 02:38:40;;;;;;;11.45;4.15;;;;;;;-0.04;100.00;96354.13;2091661;28;20476;-54
2024/02/14 02:39:41;;;;;;;6.90;3.80;;;;;;;-0.05;100.00;96349.91;2091528;28;20056;-53
2024/02/14 02:40:42;;;;;;;12.57;5.65;;;;;;;-0.02;100.00;96352.44;2091883;28;20056;-53
2024/02/14 02:41:45;;;;;;;5.63;3.67;;;;;;;-0.01;100.00;96356.69;2091616;28;20049;-54
2024/02/14 02:42:47;;;;;;;7.38;3.70;;;;;;;-0.03;100.00;96348.16;2091444;28;20037;-53
2024/02/14 02:43:49;;;;;;;6.65;3.90;;;;;;;-0.03;100.00;96345.63;2090985;28;20045;-55
2024/02/14 02:44:50;;;;;;;6.68;3.67;;;;;;;0.02;100.00;96351.56;2082878;28;20060;-54
2024/02/14 02:45:51;;;;;;;7.38;4.20;;;;;;;0.02;100.00;96348.19;2091081;28;20037;-54
2024/02/14 02:46:53;;;;;;;6.53;4.13;;;;;;;0.02;100.00;96354.13;2091558;28;20466;-54
2024/02/14 02:47:55;;;;;;;5.55;3.45;;;;;;;0.04;100.00;96349.03;2091423;28;20567;-54
2024/02/14 02:48:58;;;;;;;7.72;3.67;;;;;;;0.09;100.00;96347.34;2091479;28;20409;-54
2024/02/14 02:50:03;;;;;;;6.10;3.80;;;;;;;0.15;100.00;96350.72;2091516;28;20037;-54
2024/02/14 02:51:04;;;;;;;7.88;3.50;;;;;;;0.16;100.00;96352.44;2091517;28;20056;-55
2024/02/14 02:52:05;;;;;;;5.38;3.30;;;;;;;0.19;100.00;96359.25;2091078;28;20052;-53
2024/02/14 02:53:06;;;;;;;5.88;2.90;;;;;;;0.18;100.00;96357.53;2091530;28;20048;-54
2024/02/14 02:54:08;;;;;;;6.32;3.38;;;;;;;0.21;100.00;96355.84;2091817;28;20040;-55
2024/02/14 02:55:10;;;;;;;6.85;3.10;;;;;;;0.21;100.00;96358.41;2091285;28;20064;-53
2024/02/14 02:56:12;;;;;;;7.20;2.95;;;;;;;0.24;100.00;96364.31;2091330;28;20056;-53
2024/02/14 02:57:13;;;;;;;7.57;3.80;;;;;;;0.22;100.00;96360.09;2091478;28;20056;-54
2024/02/14 02:58:14;;;;;;;5.82;3.30;;;;;;;0.25;100.00;96366.06;2090835;28;20045;-54
2024/02/14 02:59:16;;;;;;;6.80;3.08;;;;;;;0.24;100.00;96354.97;2091311;28;20049;-53
2024/02/14 03:00:21;;;;;;;6.00;3.00;;;;;;;0.23;100.00;96366.03;2091366;28;20047;-55
2024/02/14 03:01:24;;;;;;;5.10;2.90;;;;;;;0.26;100.00;96357.53;2091277;28;20037;-54
2024/02/14 03:02:26;;;;;;;6.68;3.33;;;;;;;0.29;100.00;96366.03;2091003;28;20049;-54
2024/02/14 03:03:27;;;;;;;6.07;3.13;;;;;;;0.33;100.00;96366.88;2091335;28;20052;-54
2024/02/14 03:04:31;;;;;;;4.95;2.78;;;;;;;0.33;100.00;96356.66;2091416;28;20045;-55
2024/02/14 03:05:33;;;;;;;7.97;3.20;;;;;;;0.35;100.00;96365.19;2090906;28;20053;-55
2024/02/14 03:06:34;;;;;;;4.82;2.55;;;;;;;0.34;100.00;96356.66;2091255;28;20052;-54
2024/02/14 03:07:38;;;;;;;3.45;2.10;;;;;;;0.38;100.00;96366.03;2091392;28;20048;-54
2024/02/14 03:08:39;;;;;;;4.88;2.72;;;;;;;0.43;100.00;96363.47;2091264;28;20049;-53
2024/02/14 03:09:41;;;;;;;5.32;2.90;;;;;;;0.45;100.00;96361.75;2091210;28;20045;-55
2024/02/14 03:10:42;;;;;;;8.60;2.92;;;;;;;0.44;100.00;96360.91;2091339;28;20397;-53
2024/02/14 03:11:47;;;;;;;6.63;2.50;;;;;;;0.48;100.00;96366.00;2091184;28;20047;-55
2024/02/14 03:12:48;;;;;;;7.35;3.20;;;;;;;0.48;100.00;96366.84;2091076;28;20053;-55
2024/02/14 03:13:49;;;;;;;6.05;3.17;;;;;;;0.45;100.00;96361.75;2090944;28;20507;-55
2024/02/14 03:14:51;;;;;;;6.88;3.15;;;;;;;0.44;100.00;96365.16;2091336;28;20025;-55
2024/02/14 03:15:52;;;;;;;6.22;2.70;;;;;;;0.42;100.00;96365.16;2091413;28;20037;-54
2024/02/14 03:16:55;;;;;;;5.30;2.90;;;;;;;0.41;100.00;96363.47;2090445;28;20033;-55
2024/02/14 03:17:57;;;;;;;4.70;2.50;;;;;;;0.39;100.00;96360.06;2091230;28;20033;-55
2024/02/14 03:18:58;;;;;;;3.92;2.60;;;;;;;0.36;100.00;96360.06;2091264;28;20037;-54
2024/02/14 03:19:59;;;;;;;5.15;3.00;;;;;;;0.36;100.00;96361.78;2091300;28;20056;-54
2024/02/14 03:21:00;;;;;;;5.10;2.67;;;;;;;0.34;100.00;96359.19;2091722;28;20048;-54
2024/02/14 03:22:04;;;;;;;5.15;3.05;;;;;;;0.35;100.00;96360.09;2090854;28;20036;-54
2024/02/14 03:23:05;;;;;;;6.68;2.92;;;;;;;0.34;100.00;96351.53;2090574;28;20484;-54
2024/02/14 03:24:10;;;;;;;7.47;2.58;;;;;;;0.36;100.00;96351.56;2090571;28;20527;-54
2024/02/14 03:25:19;;;;;;;4.60;2.85;;;;;;;0.37;100.00;96353.25;2091244;28;20029;-55
2024/02/14 03:26:20;;;;;;;7.25;2.80;;;;;;;0.40;100.00;96346.44;2091248;28;20048;-54
2024/02/14 03:27:23;;;;;;;6.25;2.45;;;;;;;0.43;100.00;96341.31;2091157;28;20064;-53
2024/02/14 03:28:24;;;;;;;5.80;2.65;;;;;;;0.47;100.00;96347.25;2091028;28;20053;-54
2024/02/14 03:29:26;;;;;;;6.57;2.50;;;;;;;0.46;100.00;96345.56;2090794;28;20060;-53
2024/02/14 03:30:29;;;;;;;7.35;3.00;;;;;;;0.50;100.00;96346.41;2090755;28;20041;-54
2024/02/14 03:31:30;;;;;;;6.85;3.10;;;;;;;0.52;100.00;96339.59;2091069;28;20397;-54
2024/02/14 03:32:32;;;;;;;6.72;3.25;;;;;;;0.54;100.00;96338.75;2090761;28;20049;-55
2024/02/14 03:33:33;;;;;;;7.60;2.85;;;;;;;0.54;100.00;96338.75;2091145;28;20063;-56
2024/02/14 03:34:35;;;;;;;6.55;2.65;;;;;;;0.55;100.00;96340.44;2090948;28;20033;-56
2024/02/14 03:35:36;;;;;;;5.32;2.60;;;;;;;0.60;100.00;96338.72;2089897;28;20049;-55
2024/02/14 03:36:38;;;;;;;5.20;2.85;;;;;;;0.63;100.00;96346.38;2090585;28;20053;-55
2024/02/14 03:37:41;;;;;;;5.32;2.50;;;;;;;0.63;100.00;96343.81;2090966;28;20492;-54
2024/02/14 03:38:42;;;;;;;4.18;2.33;;;;;;;0.69;100.00;96342.94;2090708;28;20049;-54
2024/02/14 03:39:45;;;;;;;4.68;2.28;;;;;;;0.71;99.55;96346.34;2091585;28;20052;-53
2024/02/14 03:40:46;;;;;;;5.30;2.95;;;;;;;0.71;99.47;96350.63;2090989;28;20053;-54
2024/02/14 03:41:47;;;;;;;5.22;2.58;;;;;;;0.74;99.41;96351.44;2091004;28;20408;-54
2024/02/14 03:42:49;;;;;;;6.43;2.50;;;;;;;0.73;99.22;96352.31;2090996;28;20405;-55
2024/02/14 03:43:50;;;;;;;5.15;2.33;;;;;;;0.77;99.24;96354.00;2091035;28;20049;-54
2024/02/14 03:44:51;;;;;;;5.15;2.50;;;;;;;0.78;98.99;96358.28;2090400;28;20037;-53
2024/02/14 03:45:52;;;;;;;3.83;2.20;;;;;;;0.79;99.00;96354.84;2090113;28;20370;-55
2024/02/14 03:46:53;;;;;;;6.50;2.47;;;;;;;0.81;98.90;96360.81;2090812;28;20040;-53
2024/02/14 03:47:54;;;;;;;4.88;2.65;;;;;;;0.79;98.60;96356.56;2090963;28;20048;-54
2024/02/14 03:48:56;;;;;;;4.97;2.22;;;;;;;0.80;98.82;96350.56;2090882;28;20044;-54
2024/02/14 03:49:57;;;;;;;4.88;2.50;;;;;;;0.80;98.69;96348.91;2090959;28;20028;-55
2024/02/14 03:50:58;;;;;;;7.03;2.60;;;;;;;0.81;98.80;96345.47;2091076;28;20056;-53
2024/02/14 03:52:01;;;;;;;4.07;2.15;;;;;;;0.82;98.51;96349.72;2091009;28;20396;-55
2024/02/14 03:53:03;;;;;;;3.40;2.20;;;;;;;0.84;98.23;96344.59;2090265;28;20033;-56
2024/02/14 03:54:05;;;;;;;6.72;2.67;;;;;;;0.87;98.22;96344.59;2090357;28;20532;-56
2024/02/14 03:55:08;;;;;;;4.80;2.70;;;;;;;0.88;98.14;96349.72;2090919;28;20033;-54
2024/02/14 03:56:09;;;;;;;6.57;2.55;;;;;;;0.91;97.79;96346.31;2090902;28;20033;-54
2024/02/14 03:57:12;;;;;;;6.88;2.35;;;;;;;0.95;97.62;96347.13;2090976;28;20052;-55
2024/02/14 03:58:15;;;;;;;6.70;2.55;;;;;;;0.98;97.40;96349.66;2090200;28;20044;-55
2024/02/14 03:59:20;;;;;;;5.80;2.22;;;;;;;0.96;97.33;96352.22;2090258;28;20045;-55
2024/02/14 04:00:22;;;;;;;4.57;2.10;;;;;;;1.01;97.01;96353.03;2090987;28;20054;-54
2024/02/14 04:01:23;;;;;;;4.32;2.20;;;;;;;1.02;97.03;96352.22;2090901;28;20048;-54
2024/02/14 04:02:24;;;;;;;5.45;2.38;;;;;;;1.07;96.76;96357.31;2090983;28;20714;-53
2024/02/14 04:03:25;;;;;;;5.93;2.40;;;;;;;1.07;96.89;96359.88;2091073;28;20055;-55
2024/02/14 04:04:26;;;;;;;4.13;2.40;;;;;;;1.10;96.61;96365.81;2091256;28;20041;-54
2024/02/14 04:05:28;;;;;;;5.95;2.47;;;;;;;1.10;96.56;96359.84;2090651;28;20412;-55
2024/02/14 04:06:31;;;;;;;4.55;2.10;;;;;;;1.12;96.55;96370.06;2090668;28;20139;-54
2024/02/14 04:07:34;;;;;;;4.00;1.90;;;;;;;1.14;96.33;96358.97;2090571;28;20049;-55
2024/02/14 04:08:35;;;;;;;7.10;2.20;;;;;;;1.14;96.16;96358.97;2089659;28;20200;-54
2024/02/14 04:09:36;;;;;;;4.03;2.15;;;;;;;1.16;96.13;96361.53;2089427;28;20040;-54
2024/02/14 04:10:37;;;;;;;4.50;2.20;;;;;;;1.17;95.98;96360.66;2090747;28;20041;-53
2024/02/14 04:11:38;;;;;;;6.35;2.25;;;;;;;1.18;95.88;96358.13;2090605;28;20045;-55
2024/02/14 04:12:40;;;;;;;4.10;2.10;;;;;;;1.21;96.11;96364.94;2090453;28;20040;-54
2024/02/14 04:13:41;;;;;;;4.00;2.08;;;;;;;1.23;95.95;96364.06;2090512;28;20071;-54
2024/02/14 04:14:42;;;;;;;4.90;2.25;;;;;;;1.26;95.28;96368.31;2090651;28;20045;-54
2024/02/14 04:15:43;;;;;;;3.35;1.75;;;;;;;1.29;94.93;96361.47;2090429;28;20064;-55
2024/02/14 04:16:44;;;;;;;4.03;1.92;;;;;;;1.31;94.57;96361.47;2090061;28;20543;-54
2024/02/14 04:17:45;;;;;;;3.95;2.00;;;;;;;1.31;94.46;96353.78;2090751;28;20029;-55
2024/02/14 04:18:47;;;;;;;6.20;2.17;;;;;;;1.34;94.53;96361.44;2090558;28;20044;-53
2024/02/14 04:19:48;;;;;;;3.78;1.88;;;;;;;1.31;94.40;96356.34;2090804;28;20056;-55
2024/02/14 04:20:49;;;;;;;3.60;1.90;;;;;;;1.36;94.43;96354.59;2090704;28;20041;-54
2024/02/14 04:21:50;;;;;;;4.00;2.10;;;;;;;1.32;94.64;96358.03;2089813;28;20481;-54
2024/02/14 04:22:51;;;;;;;5.50;1.73;;;;;;;1.35;94.27;96352.06;2090127;28;20029;-56
2024/02/14 04:23:52;;;;;;;4.72;1.92;;;;;;;1.29;94.35;96356.34;2090735;28;20040;-54
2024/02/14 04:24:53;;;;;;;4.68;1.73;;;;;;;1.31;94.36;96351.22;2091120;28;20393;-55
2024/02/14 04:25:55;;;;;;;2.42;1.55;;;;;;;1.32;94.39;96350.38;2091297;28;20055;-56
2024/02/14 04:26:56;;;;;;;3.90;1.45;;;;;;;1.28;94.74;96354.66;2091075;28;20044;-54
2024/02/14 04:27:59;;;;;;;3.85;2.10;;;;;;;1.35;94.51;96358.03;2091095;28;20049;-55
2024/02/14 04:29:00;;;;;;;3.90;2.08;;;;;;;1.34;94.68;96361.44;2089815;28;20049;-56
2024/02/14 04:30:02;;;;;;;4.28;2.20;;;;;;;1.36;94.56;96366.53;2090210;28;20029;-55
2024/02/14 04:31:03;;;;;;;4.72;2.03;;;;;;;1.38;94.33;96360.56;2090176;28;20048;-55
2024/02/14 04:32:04;;;;;;;4.65;1.70;;;;;;;1.37;94.28;96356.31;2082438;28;20046;-59
2024/02/14 04:33:06;;;;;;;3.88;1.80;;;;;;;1.38;93.71;96354.59;2089873;28;20079;-54
2024/02/14 04:34:08;;;;;;;4.28;1.70;;;;;;;1.41;93.57;96365.66;2091001;28;20049;-54
2024/02/14 04:35:09;;;;;;;3.30;1.67;;;;;;;1.41;93.73;96360.53;2090553;28;20060;-55
2024/02/14 04:36:11;;;;;;;2.97;1.55;;;;;;;1.46;93.22;96360.50;2090861;28;20365;-53
2024/02/14 04:37:13;;;;;;;4.22;1.52;;;;;;;1.47;93.11;96357.97;2090860;28;20040;-62
2024/02/14 04:38:15;;;;;;;3.35;1.90;;;;;;;1.48;92.49;96362.22;2090802;28;20499;-53
2024/02/14 04:39:16;;;;;;;4.18;1.70;;;;;;;1.50;92.93;96368.19;2090871;28;20044;-55
2024/02/14 04:40:18;;;;;;;3.47;1.50;;;;;;;1.49;92.79;96363.91;2091642;28;20055;-59
2024/02/14 04:41:19;;;;;;;3.95;1.60;;;;;;;1.52;92.63;96360.47;2090798;28;20045;-56
2024/02/14 04:42:20;;;;;;;4.05;1.77;;;;;;;1.51;92.65;96367.31;2090590;28;20485;-57
2024/02/14 04:43:21;;;;;;;5.97;2.13;;;;;;;1.50;92.40;96363.06;2091113;28;20048;-54
2024/02/14 04:44:22;;;;;;;7.00;1.90;;;;;;;1.53;92.37;96368.16;2090999;28;20051;-54
2024/02/14 04:45:23;;;;;;;5.35;1.85;;;;;;;1.54;92.37;96372.41;2090616;28;20060;-55
2024/02/14 04:46:24;;;;;;;3.35;1.98;;;;;;;1.51;92.39;96363.91;2090467;28;20051;-59
2024/02/14 04:47:26;;;;;;;2.85;1.60;;;;;;;1.54;92.03;96374.13;2090889;28;20386;-57
2024/02/14 04:48:27;;;;;;;4.85;1.80;;;;;;;1.55;92.29;96365.56;2090672;28;20041;-53